Time;durP1;ratioP1;P1;durP2;ratioP2;P2;SDS_P1;SDS_P2;PMS_P1;PMS_P2;Temp;Humidity;BMP_temperature;BMP_pressure;BME280_temperature;BME280_humidity;BME280_pressure;Samples;Min_cycle;Max_cycle;Signal;HPM_P1;HPM_P2
2023/08/29 00:00:50;;;;;;;3.58;3.20;;;18.80;99.90;;;;;;5084251;28;20343;-23
2023/08/29 00:03:17;;;;;;;3.72;3.40;;;18.80;99.90;;;;;;5068109;28;20242;-23
2023/08/29 00:05:44;;;;;;;3.97;2.95;;;18.80;99.90;;;;;;5081626;28;20577;-23
2023/08/29 00:08:16;;;;;;;3.95;3.55;;;18.80;99.90;;;;;;5083739;28;20199;-23
2023/08/29 00:10:45;;;;;;;3.92;3.60;;;18.80;99.90;;;;;;5082932;28;20203;-23
2023/08/29 00:13:15;;;;;;;5.03;4.00;;;18.80;99.90;;;;;;5080982;28;20296;-23
2023/08/29 00:15:42;;;;;;;6.22;5.63;;;18.80;99.90;;;;;;5073849;28;20295;-23
2023/08/29 00:18:11;;;;;;;8.18;7.38;;;18.80;99.90;;;;;;5081350;28;20691;-24
2023/08/29 00:20:40;;;;;;;9.07;7.63;;;18.80;99.90;;;;;;5063053;28;20200;-23
2023/08/29 00:23:09;;;;;;;8.77;7.88;;;18.80;99.90;;;;;;5085498;28;20223;-23
2023/08/29 00:25:38;;;;;;;8.18;7.40;;;18.80;99.90;;;;;;5087469;28;20701;-23
2023/08/29 00:28:08;;;;;;;8.95;7.72;;;18.80;99.90;;;;;;5086614;28;20203;-23
2023/08/29 00:30:39;;;;;;;8.65;7.75;;;18.80;99.90;;;;;;5085140;28;20210;-24
2023/08/29 00:33:13;;;;;;;8.45;7.47;;;18.80;99.90;;;;;;5077389;28;20294;-23
2023/08/29 00:35:43;;;;;;;8.55;7.63;;;18.80;99.90;;;;;;5086951;28;20501;-23
2023/08/29 00:38:11;;;;;;;9.52;8.25;;;18.80;99.90;;;;;;5084807;28;20537;-24
2023/08/29 00:40:43;;;;;;;8.70;7.70;;;18.70;99.90;;;;;;5085275;28;20280;-23
2023/08/29 00:43:13;;;;;;;8.48;7.60;;;18.80;99.90;;;;;;5082080;28;20321;-23
2023/08/29 00:45:45;;;;;;;8.40;7.60;;;18.70;99.90;;;;;;5089566;28;20259;-24
2023/08/29 00:48:15;;;;;;;9.23;8.32;;;18.70;99.90;;;;;;5088430;28;20610;-23
2023/08/29 00:50:42;;;;;;;9.60;8.48;;;18.80;99.90;;;;;;5102396;28;20203;-23
2023/08/29 00:53:14;;;;;;;9.20;8.30;;;18.70;99.90;;;;;;5086812;28;20253;-23
2023/08/29 00:55:44;;;;;;;8.82;7.95;;;18.70;99.90;;;;;;5085685;28;20205;-23
2023/08/29 00:58:13;;;;;;;9.10;8.25;;;18.70;99.90;;;;;;5084977;28;20852;-23
2023/08/29 01:00:43;;;;;;;9.88;8.90;;;18.70;99.90;;;;;;5084034;28;20199;-23
2023/08/29 01:03:10;;;;;;;9.80;8.80;;;18.70;99.90;;;;;;5094801;28;20220;-23
2023/08/29 01:05:43;;;;;;;9.43;8.50;;;18.70;99.90;;;;;;5065330;28;20528;-23
2023/08/29 01:08:13;;;;;;;9.90;8.90;;;18.60;99.90;;;;;;5099462;28;20218;-23
2023/08/29 01:11:30;;;;;;;9.32;8.43;;;18.60;99.90;;;;;;5085285;28;20199;-23
2023/08/29 01:14:26;;;;;;;11.10;9.70;;;18.60;99.90;;;;;;5046521;28;20247;-23
2023/08/29 01:17:05;;;;;;;10.63;9.52;;;18.60;99.90;;;;;;5063018;28;20212;-23
2023/08/29 01:19:35;;;;;;;10.88;9.77;;;18.60;99.90;;;;;;5073086;28;20210;-23
2023/08/29 01:22:35;;;;;;;10.23;9.30;;;18.60;99.90;;;;;;5078144;28;20265;-23
2023/08/29 01:25:26;;;;;;;10.60;9.52;;;18.50;99.90;;;;;;5086264;28;20202;-23
2023/08/29 01:27:56;;;;;;;10.23;9.25;;;18.50;99.90;;;;;;5071792;28;20703;-23
2023/08/29 01:30:24;;;;;;;9.93;9.00;;;18.50;99.90;;;;;;5098329;28;20691;-23
2023/08/29 01:32:52;;;;;;;9.85;8.90;;;18.50;99.90;;;;;;5085094;28;20232;-23
2023/08/29 01:35:21;;;;;;;9.07;8.27;;;18.40;99.90;;;;;;5085614;28;20695;-24
2023/08/29 01:37:51;;;;;;;10.20;9.20;;;18.40;99.90;;;;;;5073959;28;20200;-23
2023/08/29 01:40:20;;;;;;;9.20;8.30;;;18.40;99.90;;;;;;5084461;28;20340;-23
2023/08/29 01:42:50;;;;;;;9.63;8.73;;;18.40;99.90;;;;;;5085558;28;20213;-23
2023/08/29 01:45:17;;;;;;;10.35;9.30;;;18.40;99.90;;;;;;5088061;28;20218;-23
2023/08/29 01:47:44;;;;;;;10.95;9.85;;;18.40;99.90;;;;;;5084918;28;20246;-23
2023/08/29 01:50:13;;;;;;;10.13;8.70;;;18.30;99.90;;;;;;5087043;28;20221;-23
2023/08/29 01:52:40;;;;;;;9.77;8.88;;;18.30;99.90;;;;;;5085916;28;20203;-23
2023/08/29 01:55:08;;;;;;;10.85;9.30;;;18.30;99.90;;;;;;5083730;28;20223;-23
2023/08/29 01:57:38;;;;;;;10.50;9.50;;;18.30;99.90;;;;;;5083985;28;20230;-23
2023/08/29 02:00:07;;;;;;;12.55;10.05;;;18.20;99.90;;;;;;5085623;28;20191;-23
2023/08/29 02:02:40;;;;;;;9.88;8.80;;;18.30;99.90;;;;;;5084559;28;20225;-23
2023/08/29 02:05:12;;;;;;;11.05;9.63;;;18.20;99.90;;;;;;5072436;28;20242;-23
2023/08/29 02:07:39;;;;;;;11.57;10.48;;;18.20;99.90;;;;;;5075545;28;20199;-23
2023/08/29 02:10:13;;;;;;;11.43;10.25;;;18.20;99.90;;;;;;5083240;28;20237;-24
2023/08/29 02:12:40;;;;;;;11.35;9.80;;;18.10;99.90;;;;;;5077311;28;20697;-23
2023/08/29 02:15:09;;;;;;;10.52;9.52;;;18.10;99.90;;;;;;5063572;28;20210;-23
2023/08/29 02:17:40;;;;;;;11.02;9.95;;;18.10;99.90;;;;;;5065439;28;20550;-23
2023/08/29 02:20:08;;;;;;;11.55;9.90;;;18.00;99.90;;;;;;5062921;28;20200;-23
2023/08/29 02:22:37;;;;;;;11.57;10.05;;;18.00;99.90;;;;;;5077621;28;20894;-24
2023/08/29 02:25:09;;;;;;;11.68;10.30;;;18.00;99.90;;;;;;5084132;28;20597;-23
2023/08/29 02:27:39;;;;;;;11.68;10.52;;;17.90;99.90;;;;;;5084055;28;20209;-23
2023/08/29 02:30:07;;;;;;;11.70;10.63;;;17.90;99.90;;;;;;5080372;28;20815;-23
2023/08/29 02:32:34;;;;;;;10.85;9.80;;;17.80;99.90;;;;;;5069972;28;20203;-23
2023/08/29 02:35:03;;;;;;;11.43;10.02;;;17.80;99.90;;;;;;5084520;28;20209;-23
2023/08/29 02:37:34;;;;;;;11.25;10.15;;;17.80;99.90;;;;;;5084632;28;20210;-23
2023/08/29 02:40:07;;;;;;;11.32;9.82;;;17.70;99.90;;;;;;5086603;28;20692;-23
2023/08/29 02:42:37;;;;;;;11.23;10.13;;;17.70;99.90;;;;;;5085656;28;20271;-23
2023/08/29 02:45:06;;;;;;;10.90;9.80;;;17.70;99.90;;;;;;5083325;28;20657;-24
2023/08/29 02:47:36;;;;;;;10.60;9.60;;;17.60;99.90;;;;;;5083076;28;20215;-24
2023/08/29 02:50:03;;;;;;;10.93;9.70;;;17.60;99.90;;;;;;5084389;28;20549;-23
2023/08/29 02:52:31;;;;;;;11.00;9.90;;;17.60;99.90;;;;;;5066774;28;20202;-23
2023/08/29 02:54:58;;;;;;;9.75;8.70;;;17.50;99.90;;;;;;5083270;28;20218;-23
2023/08/29 02:57:28;;;;;;;10.73;9.63;;;17.50;99.90;;;;;;5082551;28;20213;-23
2023/08/29 02:59:57;;;;;;;11.18;9.68;;;17.50;99.90;;;;;;5082793;28;20766;-23
2023/08/29 03:02:27;;;;;;;9.50;8.37;;;17.40;99.90;;;;;;5081498;28;20198;-31
2023/08/29 03:04:59;;;;;;;9.60;8.00;;;17.40;99.90;;;;;;5080609;28;20275;-31
2023/08/29 03:07:26;;;;;;;10.47;8.43;;;17.40;99.90;;;;;;5083994;28;20260;-31
2023/08/29 03:09:55;;;;;;;8.77;7.67;;;17.40;99.90;;;;;;5082873;28;20203;-31
2023/08/29 03:12:24;;;;;;;8.43;7.63;;;17.40;99.90;;;;;;5083617;28;20195;-31
2023/08/29 03:14:54;;;;;;;8.48;6.90;;;17.40;99.90;;;;;;5080867;28;20226;-31
2023/08/29 03:17:24;;;;;;;7.77;7.00;;;17.40;99.90;;;;;;5057793;28;20206;-31
2023/08/29 03:19:51;;;;;;;8.53;7.73;;;17.40;99.90;;;;;;5082308;28;20195;-31
2023/08/29 03:22:20;;;;;;;8.77;7.88;;;17.30;99.90;;;;;;5077407;28;20211;-31
2023/08/29 03:24:49;;;;;;;8.83;7.93;;;17.30;99.90;;;;;;5077807;28;20207;-24
2023/08/29 03:27:17;;;;;;;8.93;8.03;;;17.30;99.90;;;;;;5066161;28;20247;-23
2023/08/29 03:29:45;;;;;;;9.85;8.02;;;17.30;99.90;;;;;;5065883;28;20208;-23
2023/08/29 03:32:12;;;;;;;8.93;8.13;;;17.30;99.90;;;;;;5064472;28;20253;-28
2023/08/29 03:34:41;;;;;;;11.70;8.70;;;17.20;99.90;;;;;;5063122;28;20761;-23
2023/08/29 03:37:10;;;;;;;10.75;9.65;;;17.20;99.90;;;;;;5079671;28;20294;-23
2023/08/29 03:39:42;;;;;;;10.97;9.77;;;17.20;99.90;;;;;;5085854;28;20299;-24
2023/08/29 03:42:12;;;;;;;13.10;11.80;;;17.10;99.90;;;;;;5083169;28;20286;-23
2023/08/29 03:44:39;;;;;;;12.67;11.37;;;17.10;99.90;;;;;;5083884;28;20240;-23
2023/08/29 03:47:09;;;;;;;12.83;11.63;;;17.10;99.90;;;;;;5082627;28;20734;-23
2023/08/29 03:49:38;;;;;;;14.60;11.85;;;17.10;99.90;;;;;;5081929;28;20274;-24
2023/08/29 03:52:05;;;;;;;13.03;11.83;;;17.10;99.90;;;;;;5081908;28;20508;-23
2023/08/29 03:54:32;;;;;;;13.33;11.83;;;17.00;99.90;;;;;;5080990;28;20727;-23
2023/08/29 03:57:00;;;;;;;14.17;12.10;;;17.00;99.90;;;;;;5085477;28;20206;-24
2023/08/29 03:59:30;;;;;;;13.07;11.77;;;17.00;99.90;;;;;;5086418;28;20228;-23
2023/08/29 04:01:57;;;;;;;12.77;11.30;;;17.00;99.90;;;;;;5086814;28;20217;-24
2023/08/29 04:04:24;;;;;;;12.27;11.03;;;17.00;99.90;;;;;;5060818;28;20369;-23
2023/08/29 04:06:54;;;;;;;12.13;10.93;;;17.00;99.90;;;;;;5085989;28;20234;-23
2023/08/29 04:09:23;;;;;;;11.90;10.67;;;17.00;99.90;;;;;;5087397;28;20997;-23
2023/08/29 04:11:53;;;;;;;12.60;10.68;;;17.00;99.90;;;;;;5081864;28;20230;-23
2023/08/29 04:14:20;;;;;;;12.27;11.18;;;17.00;99.90;;;;;;5083135;28;20215;-23
2023/08/29 04:16:48;;;;;;;11.82;10.32;;;17.00;99.90;;;;;;5084541;28;20302;-23
2023/08/29 04:19:17;;;;;;;13.27;11.07;;;17.00;99.90;;;;;;5086470;28;20735;-24
2023/08/29 04:21:48;;;;;;;12.30;11.00;;;16.90;99.90;;;;;;5087454;28;20206;-23
2023/08/29 04:24:17;;;;;;;13.60;12.20;;;16.90;99.90;;;;;;5086862;28;20669;-23
2023/08/29 04:26:44;;;;;;;14.53;12.87;;;16.90;99.90;;;;;;5085909;28;20214;-31
2023/08/29 04:29:14;;;;;;;14.40;12.85;;;16.90;99.90;;;;;;5083589;28;20548;-31
2023/08/29 04:31:41;;;;;;;13.05;11.65;;;16.90;99.90;;;;;;5079207;28;20199;-31
2023/08/29 04:34:13;;;;;;;12.50;11.30;;;16.90;99.90;;;;;;5085912;28;20210;-31
2023/08/29 04:36:40;;;;;;;15.23;13.73;;;16.90;99.90;;;;;;5087974;28;20326;-24
2023/08/29 04:39:07;;;;;;;16.03;14.33;;;16.90;99.90;;;;;;5089147;28;20651;-24
2023/08/29 04:41:34;;;;;;;16.87;14.67;;;17.00;99.90;;;;;;5088801;28;20211;-23
2023/08/29 04:44:08;;;;;;;17.80;15.90;;;17.00;99.90;;;;;;5070432;28;20227;-23
2023/08/29 04:46:35;;;;;;;17.53;15.80;;;17.00;99.90;;;;;;5080890;28;20318;-23
2023/08/29 04:49:03;;;;;;;16.60;15.00;;;17.10;99.90;;;;;;5088631;28;20551;-23
2023/08/29 04:51:35;;;;;;;18.93;15.27;;;17.10;99.90;;;;;;5086599;28;21048;-23
2023/08/29 04:54:05;;;;;;;16.87;15.17;;;17.20;99.90;;;;;;5088886;28;20202;-23
2023/08/29 04:56:35;;;;;;;17.30;15.50;;;17.20;99.90;;;;;;5086726;28;20231;-23
2023/08/29 04:59:09;;;;;;;17.77;15.97;;;17.20;99.90;;;;;;5083674;28;20208;-23
2023/08/29 05:01:37;;;;;;;17.93;16.13;;;17.30;99.90;;;;;;5080282;28;20202;-24
2023/08/29 05:04:10;;;;;;;16.80;15.00;;;17.30;99.90;;;;;;5080822;28;20322;-24
2023/08/29 05:06:38;;;;;;;17.80;15.97;;;17.30;99.90;;;;;;5081619;28;20451;-23
2023/08/29 05:09:09;;;;;;;17.93;16.03;;;17.30;99.90;;;;;;5082466;28;20196;-31
2023/08/29 05:11:41;;;;;;;19.60;17.70;;;17.40;99.90;;;;;;5066860;28;20206;-31
2023/08/29 05:14:13;;;;;;;17.83;15.93;;;17.40;99.90;;;;;;5071198;28;20195;-31
2023/08/29 05:16:40;;;;;;;18.03;16.23;;;17.40;99.90;;;;;;5064645;28;20215;-31
2023/08/29 05:19:08;;;;;;;17.63;15.77;;;17.40;99.90;;;;;;5066224;28;20842;-23
2023/08/29 05:21:37;;;;;;;18.13;15.67;;;17.40;99.90;;;;;;5061616;28;21583;-24
2023/08/29 05:24:06;;;;;;;17.45;15.85;;;17.40;99.90;;;;;;5078930;28;20227;-23
2023/08/29 05:26:33;;;;;;;16.97;15.27;;;17.40;99.90;;;;;;5083683;28;20461;-24
2023/08/29 05:29:00;;;;;;;16.70;15.10;;;17.50;99.90;;;;;;5084790;28;20226;-23
2023/08/29 05:31:27;;;;;;;17.83;15.97;;;17.50;99.90;;;;;;5097393;28;20617;-24
2023/08/29 05:33:54;;;;;;;17.93;16.13;;;17.50;99.90;;;;;;5082036;28;20286;-24
2023/08/29 05:36:21;;;;;;;17.13;15.53;;;17.50;99.90;;;;;;5082988;28;20214;-23
2023/08/29 05:38:50;;;;;;;17.27;15.57;;;17.50;99.90;;;;;;5077691;28;20226;-24
2023/08/29 05:41:20;;;;;;;17.33;15.45;;;17.50;99.90;;;;;;5079565;28;20236;-23
2023/08/29 05:43:50;;;;;;;18.00;16.10;;;17.50;99.90;;;;;;5080892;28;20849;-23
2023/08/29 05:46:17;;;;;;;17.40;15.60;;;17.50;99.90;;;;;;5086600;28;20626;-23
2023/08/29 05:48:47;;;;;;;17.23;15.17;;;17.50;99.90;;;;;;5086986;28;20225;-23
2023/08/29 05:51:18;;;;;;;18.37;16.47;;;17.60;99.90;;;;;;5086760;28;20213;-24
2023/08/29 05:53:45;;;;;;;16.63;14.83;;;17.60;99.90;;;;;;5080542;28;20223;-24
2023/08/29 05:56:15;;;;;;;17.98;16.08;;;17.60;99.90;;;;;;5083152;28;20239;-24
2023/08/29 05:58:42;;;;;;;17.73;15.90;;;17.60;99.90;;;;;;5086284;28;20454;-24
2023/08/29 06:01:11;;;;;;;17.50;15.47;;;17.70;99.90;;;;;;5088079;28;20206;-23
2023/08/29 06:03:41;;;;;;;17.00;15.30;;;17.60;99.90;;;;;;5085990;28;20313;-23
2023/08/29 06:06:11;;;;;;;18.80;15.90;;;17.70;99.90;;;;;;5084431;28;20736;-24
2023/08/29 06:08:40;;;;;;;15.87;13.70;;;17.70;99.90;;;;;;5085445;28;20660;-24
2023/08/29 06:11:07;;;;;;;15.57;12.40;;;17.70;99.90;;;;;;5083483;28;20252;-23
2023/08/29 06:13:41;;;;;;;14.97;11.63;;;17.70;99.90;;;;;;5085255;28;20272;-23
2023/08/29 06:16:11;;;;;;;14.00;11.93;;;17.80;99.90;;;;;;5080724;28;20509;-23
2023/08/29 06:18:40;;;;;;;15.10;12.37;;;17.70;99.90;;;;;;5082367;28;20199;-23
2023/08/29 06:21:09;;;;;;;17.95;12.02;;;17.80;99.90;;;;;;5079338;28;20218;-24
2023/08/29 06:23:36;;;;;;;23.57;13.67;;;17.70;99.90;;;;;;5082955;28;20223;-23
2023/08/29 06:26:04;;;;;;;18.53;13.03;;;17.80;99.90;;;;;;5083962;28;20234;-23
2023/08/29 06:28:33;;;;;;;14.73;12.33;;;17.70;99.90;;;;;;5080152;28;20232;-23
2023/08/29 06:31:08;;;;;;;14.87;12.53;;;17.80;99.90;;;;;;5069925;28;20673;-23
2023/08/29 06:33:39;;;;;;;14.73;12.60;;;17.80;99.90;;;;;;5082909;28;20301;-24
2023/08/29 06:36:09;;;;;;;15.93;12.73;;;17.80;99.90;;;;;;5082602;28;20297;-23
2023/08/29 06:38:42;;;;;;;16.10;13.18;;;17.80;99.90;;;;;;5085897;28;20292;-24
2023/08/29 06:41:09;;;;;;;15.45;12.40;;;17.80;99.90;;;;;;5082814;28;20207;-23
2023/08/29 06:43:36;;;;;;;16.17;12.95;;;17.80;99.90;;;;;;5082816;28;20198;-23
2023/08/29 06:46:08;;;;;;;14.52;13.02;;;17.80;99.90;;;;;;5085553;28;20330;-24
2023/08/29 06:48:36;;;;;;;14.30;12.77;;;17.90;99.90;;;;;;5083809;28;20201;-23
2023/08/29 06:51:07;;;;;;;15.07;13.00;;;17.90;99.90;;;;;;5074202;28;20215;-23
2023/08/29 06:53:36;;;;;;;17.33;12.77;;;17.90;99.90;;;;;;5057276;28;20209;-31
2023/08/29 06:56:08;;;;;;;16.87;12.47;;;18.00;99.90;;;;;;5079650;28;20203;-30
2023/08/29 06:58:35;;;;;;;14.60;13.07;;;18.00;99.90;;;;;;5086594;28;20214;-31
2023/08/29 07:01:04;;;;;;;16.98;14.75;;;18.00;99.90;;;;;;5086114;28;20198;-31
2023/08/29 07:03:31;;;;;;;18.00;16.20;;;18.10;99.90;;;;;;5083069;28;20884;-31
2023/08/29 07:06:01;;;;;;;21.10;17.75;;;18.10;99.90;;;;;;5055678;28;20231;-31
2023/08/29 07:08:31;;;;;;;20.58;17.58;;;18.20;99.90;;;;;;5083653;28;20215;-31
2023/08/29 07:10:58;;;;;;;21.03;17.60;;;18.20;99.90;;;;;;5084069;28;20199;-31
2023/08/29 07:13:25;;;;;;;19.10;17.00;;;18.30;99.90;;;;;;5085210;28;20215;-31
2023/08/29 07:15:52;;;;;;;19.55;16.95;;;18.30;99.90;;;;;;5065037;28;20752;-31
2023/08/29 07:18:22;;;;;;;20.55;17.17;;;18.30;99.90;;;;;;5087176;28;20207;-31
2023/08/29 07:20:52;;;;;;;17.70;15.73;;;18.40;99.90;;;;;;5083248;28;20207;-31
2023/08/29 07:23:21;;;;;;;18.67;16.33;;;18.40;99.90;;;;;;5065505;28;20289;-31
2023/08/29 07:25:53;;;;;;;18.73;16.80;;;18.40;99.90;;;;;;5084364;28;20743;-31
2023/08/29 07:28:20;;;;;;;18.40;16.27;;;18.50;99.90;;;;;;5079028;28;20213;-31
2023/08/29 07:30:51;;;;;;;17.40;15.63;;;18.50;99.90;;;;;;5083269;28;20252;-31
2023/08/29 07:33:19;;;;;;;18.50;15.82;;;18.50;99.90;;;;;;5082499;28;20211;-31
2023/08/29 07:35:51;;;;;;;17.90;15.02;;;18.60;99.90;;;;;;5081398;28;20238;-32
2023/08/29 07:38:23;;;;;;;16.30;14.53;;;18.60;99.90;;;;;;5082097;28;20238;-31
2023/08/29 07:40:54;;;;;;;17.83;15.90;;;18.70;99.90;;;;;;5082758;28;20222;-31
2023/08/29 07:43:21;;;;;;;20.60;15.93;;;18.70;99.90;;;;;;5057726;28;20926;-31
2023/08/29 07:45:52;;;;;;;19.43;14.93;;;18.80;99.90;;;;;;5075042;28;20307;-31
2023/08/29 07:48:20;;;;;;;20.20;15.85;;;18.80;99.90;;;;;;5082926;28;20562;-24
2023/08/29 07:50:49;;;;;;;17.05;15.32;;;18.90;99.90;;;;;;5084611;28;20560;-24
2023/08/29 07:53:21;;;;;;;15.88;13.82;;;18.90;99.90;;;;;;5085594;28;20203;-24
2023/08/29 07:55:50;;;;;;;18.80;13.60;;;18.90;99.90;;;;;;5085993;28;20211;-24
2023/08/29 07:58:22;;;;;;;16.05;14.27;;;19.00;99.90;;;;;;5062764;28;20680;-24
2023/08/29 08:00:52;;;;;;;15.82;13.40;;;19.00;99.90;;;;;;5064100;28;20840;-24
2023/08/29 08:03:23;;;;;;;15.45;12.88;;;19.10;99.90;;;;;;5083171;28;20305;-24
2023/08/29 08:05:50;;;;;;;15.70;13.53;;;19.10;99.90;;;;;;5082132;28;20215;-24
2023/08/29 08:08:18;;;;;;;16.10;14.13;;;19.20;99.90;;;;;;5082523;28;20782;-23
2023/08/29 08:10:47;;;;;;;15.23;13.63;;;19.20;99.90;;;;;;5083417;28;20231;-23
2023/08/29 08:13:16;;;;;;;15.52;13.75;;;19.20;99.90;;;;;;5084189;28;20683;-24
2023/08/29 08:15:44;;;;;;;15.68;12.48;;;19.30;99.90;;;;;;5083606;28;20209;-24
2023/08/29 08:18:13;;;;;;;15.98;13.15;;;19.30;99.90;;;;;;5068000;28;20301;-24
2023/08/29 08:20:43;;;;;;;16.35;13.25;;;19.40;99.90;;;;;;5080208;28;20195;-24
2023/08/29 08:23:10;;;;;;;14.05;12.40;;;19.40;99.90;;;;;;5083697;28;20199;-24
2023/08/29 08:25:41;;;;;;;13.45;12.00;;;19.50;99.90;;;;;;5083938;28;20218;-24
2023/08/29 08:28:13;;;;;;;14.23;12.73;;;19.50;99.90;;;;;;5083439;28;20214;-23
2023/08/29 08:30:43;;;;;;;17.02;12.73;;;19.60;99.90;;;;;;5083752;28;20206;-24
2023/08/29 08:33:10;;;;;;;15.27;10.95;;;19.70;99.90;;;;;;5085268;28;20679;-24
2023/08/29 08:35:37;;;;;;;13.95;11.23;;;19.70;99.90;;;;;;5064995;28;20214;-24
2023/08/29 08:38:20;;;;;;;14.65;10.98;;;19.80;99.90;;;;;;5081012;28;20334;-24
2023/08/29 08:40:49;;;;;;;12.88;11.15;;;19.80;99.90;;;;;;5078170;28;20214;-23
2023/08/29 08:43:19;;;;;;;15.25;11.13;;;19.90;99.90;;;;;;5085126;28;20209;-24
2023/08/29 08:45:50;;;;;;;14.30;11.35;;;19.90;99.90;;;;;;5069773;28;20310;-23
2023/08/29 08:48:19;;;;;;;14.82;11.63;;;20.00;99.90;;;;;;5072730;28;20203;-24
2023/08/29 08:50:49;;;;;;;14.93;11.48;;;20.00;99.90;;;;;;5085590;28;20195;-24
2023/08/29 08:53:22;;;;;;;18.35;12.65;;;20.10;99.90;;;;;;5087920;28;20211;-25
2023/08/29 08:55:52;;;;;;;19.60;11.98;;;20.20;99.90;;;;;;5089009;28;20302;-24
2023/08/29 08:58:22;;;;;;;14.38;10.73;;;20.20;99.90;;;;;;5079633;28;20606;-25
2023/08/29 09:00:52;;;;;;;10.38;7.15;;;20.30;99.90;;;;;;5087455;28;20251;-25
2023/08/29 09:03:20;;;;;;;7.97;6.75;;;20.40;99.90;;;;;;5085860;28;20229;-25
2023/08/29 09:05:47;;;;;;;9.30;7.60;;;20.40;99.90;;;;;;5084900;28;20304;-25
2023/08/29 09:08:14;;;;;;;8.07;6.85;;;20.50;99.90;;;;;;5086801;28;20683;-24
2023/08/29 09:10:44;;;;;;;7.18;6.40;;;20.50;99.90;;;;;;5070890;28;20694;-24
2023/08/29 09:13:19;;;;;;;9.80;7.28;;;20.60;99.90;;;;;;5077351;28;20645;-33
2023/08/29 09:15:47;;;;;;;12.68;7.97;;;20.60;99.90;;;;;;5094294;28;20213;-32
2023/08/29 09:18:24;;;;;;;10.25;7.43;;;20.70;99.90;;;;;;5085421;28;20196;-32
2023/08/29 09:20:54;;;;;;;10.88;7.95;;;20.60;99.90;;;;;;5084161;28;20271;-31
2023/08/29 09:23:30;;;;;;;8.70;6.93;;;20.70;99.90;;;;;;5085509;28;20313;-31
2023/08/29 09:26:04;;;;;;;9.98;7.20;;;20.80;99.90;;;;;;5087122;28;20313;-32
2023/08/29 09:28:31;;;;;;;10.70;7.38;;;20.80;99.90;;;;;;5085522;28;20213;-31
2023/08/29 09:31:11;;;;;;;10.60;7.53;;;20.80;99.90;;;;;;5085393;28;20215;-32
2023/08/29 09:33:41;;;;;;;7.90;7.10;;;20.90;99.90;;;;;;5081046;28;20199;-31
2023/08/29 09:36:10;;;;;;;11.48;6.80;;;20.90;99.90;;;;;;5087287;28;20203;-31
2023/08/29 09:38:38;;;;;;;11.10;7.55;;;20.90;99.90;;;;;;5089128;28;20334;-31
2023/08/29 09:41:11;;;;;;;9.05;6.78;;;20.90;99.90;;;;;;5085958;28;20221;-31
2023/08/29 09:43:47;;;;;;;9.27;6.65;;;21.00;99.90;;;;;;5086225;28;20686;-32
2023/08/29 09:46:23;;;;;;;9.70;6.25;;;21.00;99.90;;;;;;5085562;28;20870;-31
2023/08/29 09:48:55;;;;;;;9.70;7.13;;;21.00;99.90;;;;;;5086722;28;20206;-31
2023/08/29 09:51:28;;;;;;;7.75;7.03;;;21.00;99.90;;;;;;5078105;28;20642;-32
2023/08/29 09:54:00;;;;;;;8.70;6.95;;;21.00;99.90;;;;;;5087473;28;20211;-31
2023/08/29 09:56:29;;;;;;;6.88;5.75;;;21.00;99.90;;;;;;5077026;28;20215;-31
2023/08/29 09:59:01;;;;;;;9.85;6.20;;;21.00;99.90;;;;;;5080549;28;20288;-32
2023/08/29 10:01:29;;;;;;;9.80;6.95;;;21.10;99.90;;;;;;5087187;28;20592;-32
2023/08/29 10:04:04;;;;;;;7.13;6.43;;;21.10;99.90;;;;;;5080573;28;20706;-31
2023/08/29 10:06:36;;;;;;;7.63;6.57;;;21.10;99.90;;;;;;5086359;28;20222;-31
2023/08/29 10:09:07;;;;;;;8.82;6.88;;;21.20;99.90;;;;;;5087115;28;20645;-32
2023/08/29 10:11:37;;;;;;;9.43;7.22;;;21.20;99.90;;;;;;5082152;28;20686;-31
2023/08/29 10:14:21;;;;;;;10.02;6.88;;;21.20;99.90;;;;;;5085509;28;20195;-31
2023/08/29 10:16:51;;;;;;;9.85;8.00;;;21.20;99.90;;;;;;5076980;28;20723;-32
2023/08/29 10:19:20;;;;;;;9.02;7.10;;;21.30;99.90;;;;;;5053122;28;20199;-32
2023/08/29 10:21:53;;;;;;;8.00;7.25;;;21.30;99.90;;;;;;5079779;28;20215;-32
2023/08/29 10:24:21;;;;;;;9.50;7.35;;;21.30;99.90;;;;;;5087932;28;20490;-31
2023/08/29 10:26:50;;;;;;;8.68;7.53;;;21.30;99.90;;;;;;5084416;28;20306;-32
2023/08/29 10:29:20;;;;;;;8.75;7.65;;;21.30;99.90;;;;;;5068021;28;20662;-32
2023/08/29 10:31:47;;;;;;;10.43;7.50;;;21.40;99.90;;;;;;5084935;28;20645;-32
2023/08/29 10:34:19;;;;;;;12.13;9.90;;;21.40;99.90;;;;;;5085346;28;20309;-31
2023/08/29 10:36:50;;;;;;;11.25;8.85;;;21.50;99.90;;;;;;5081282;28;20690;-32
2023/08/29 10:39:19;;;;;;;12.05;8.85;;;21.50;99.90;;;;;;5086825;28;20238;-32
2023/08/29 10:41:53;;;;;;;10.63;8.65;;;21.50;99.90;;;;;;5075017;28;21684;-32
2023/08/29 10:44:35;;;;;;;16.73;9.27;;;21.60;99.90;;;;;;5064543;28;20659;-31
2023/08/29 10:47:31;;;;;;;11.60;8.52;;;21.60;99.90;;;;;;5070938;28;20644;-32
2023/08/29 10:50:06;;;;;;;9.75;8.73;;;21.70;99.90;;;;;;5065087;28;20231;-32
2023/08/29 10:52:37;;;;;;;10.35;9.25;;;21.70;99.90;;;;;;5066408;28;20188;-31
2023/08/29 10:55:18;;;;;;;13.23;8.80;;;21.70;99.90;;;;;;5067698;28;20199;-31
2023/08/29 10:57:51;;;;;;;11.05;8.70;;;21.70;99.90;;;;;;5079647;28;20465;-31
2023/08/29 11:00:52;;;;;;;13.10;8.30;;;21.70;99.90;;;;;;5086101;28;20202;-31
2023/08/29 11:03:39;;;;;;;10.63;7.88;;;21.80;99.90;;;;;;5087047;28;20210;-31
2023/08/29 11:06:06;;;;;;;9.98;8.95;;;21.80;99.90;;;;;;5083454;28;20515;-32
2023/08/29 11:08:40;;;;;;;10.15;7.78;;;21.90;99.90;;;;;;5066313;28;20227;-31
2023/08/29 11:11:26;;;;;;;8.40;7.30;;;21.90;99.90;;;;;;5085550;28;20199;-32
2023/08/29 11:14:08;;;;;;;9.55;7.43;;;22.00;99.90;;;;;;5078104;28;20294;-31
2023/08/29 11:16:37;;;;;;;8.02;6.78;;;22.00;99.90;;;;;;5080572;28;20218;-32
2023/08/29 11:19:12;;;;;;;7.60;6.22;;;22.10;99.90;;;;;;5082612;28;20215;-31
2023/08/29 11:21:46;;;;;;;9.07;7.50;;;22.10;99.90;;;;;;5065308;28;20207;-32
2023/08/29 11:24:13;;;;;;;7.32;5.90;;;22.20;99.90;;;;;;5082392;28;20720;-32
2023/08/29 11:26:47;;;;;;;8.35;6.90;;;22.30;99.90;;;;;;5083492;28;20280;-32
2023/08/29 11:29:14;;;;;;;8.98;6.00;;;22.30;99.90;;;;;;5085523;28;20203;-32
2023/08/29 11:31:48;;;;;;;6.75;5.60;;;22.30;99.90;;;;;;5081710;28;20195;-32
2023/08/29 11:34:20;;;;;;;6.65;6.05;;;22.30;99.90;;;;;;5067239;28;20258;-31
2023/08/29 11:36:55;;;;;;;6.95;5.45;;;22.30;99.90;;;;;;5073296;28;20203;-32
2023/08/29 11:39:25;;;;;;;6.40;5.03;;;22.40;99.90;;;;;;5081196;28;20786;-32
2023/08/29 11:41:54;;;;;;;6.65;5.20;;;22.40;99.90;;;;;;5084106;28;20294;-31
2023/08/29 11:44:41;;;;;;;6.32;5.72;;;22.40;99.90;;;;;;5084914;28;20203;-31
2023/08/29 11:47:28;;;;;;;5.30;4.80;;;22.50;99.90;;;;;;5080277;28;20227;-32
2023/08/29 11:49:55;;;;;;;6.50;4.70;;;22.50;99.90;;;;;;5081708;28;20207;-31
2023/08/29 11:52:25;;;;;;;7.18;5.10;;;22.60;99.90;;;;;;5083684;28;20211;-32
2023/08/29 11:54:56;;;;;;;5.93;4.50;;;22.60;99.90;;;;;;5085478;28;20298;-32
2023/08/29 11:57:27;;;;;;;9.02;6.70;;;22.60;99.90;;;;;;5086269;28;20202;-32
2023/08/29 11:59:57;;;;;;;10.00;6.13;;;22.60;99.90;;;;;;5082858;28;20699;-31
2023/08/29 12:02:24;;;;;;;8.35;5.32;;;22.60;99.90;;;;;;5081699;28;20568;-32
2023/08/29 12:04:59;;;;;;;9.00;5.57;;;22.60;99.90;;;;;;5076977;28;20205;-32
2023/08/29 12:07:31;;;;;;;5.55;4.90;;;22.70;99.90;;;;;;5085513;28;20276;-32
2023/08/29 12:10:09;;;;;;;5.07;4.57;;;22.70;99.90;;;;;;5068010;28;20194;-32
2023/08/29 12:12:41;;;;;;;8.07;4.82;;;22.70;99.90;;;;;;5074854;28;20206;-31
2023/08/29 12:15:14;;;;;;;6.05;4.00;;;22.70;99.90;;;;;;5084700;28;20246;-31
2023/08/29 12:17:54;;;;;;;4.78;3.47;;;22.70;99.90;;;;;;5073438;28;20199;-31
2023/08/29 12:20:21;;;;;;;5.88;3.67;;;22.70;99.90;;;;;;5073474;28;20242;-31
2023/08/29 12:22:50;;;;;;;4.40;3.28;;;22.70;99.90;;;;;;5070238;28;20639;-32
2023/08/29 12:25:24;;;;;;;5.45;3.58;;;22.70;99.90;;;;;;5067743;28;20215;-31
2023/08/29 12:27:53;;;;;;;3.45;2.92;;;22.70;99.90;;;;;;5067711;28;20322;-31
2023/08/29 12:30:21;;;;;;;4.50;3.00;;;22.70;99.90;;;;;;5064652;28;20205;-31
2023/08/29 12:32:53;;;;;;;4.35;3.50;;;22.70;99.90;;;;;;5062468;28;20624;-32
2023/08/29 12:35:25;;;;;;;4.45;3.08;;;22.70;99.90;;;;;;5059755;28;20215;-32
2023/08/29 12:37:52;;;;;;;3.40;2.95;;;22.70;99.90;;;;;;5062019;28;20295;-32
2023/08/29 12:40:19;;;;;;;2.70;2.50;;;22.60;99.90;;;;;;5063710;28;20228;-31
2023/08/29 12:42:49;;;;;;;3.60;2.53;;;22.60;99.90;;;;;;5056970;28;20257;-31
2023/08/29 12:45:18;;;;;;;3.70;2.60;;;22.70;99.90;;;;;;5058922;28;20212;-32
2023/08/29 12:47:47;;;;;;;3.60;3.30;;;22.60;99.90;;;;;;5072338;28;20223;-31
2023/08/29 12:50:20;;;;;;;2.83;2.28;;;22.60;99.90;;;;;;5053100;28;20208;-31
2023/08/29 12:52:48;;;;;;;2.47;2.05;;;22.60;99.90;;;;;;5049088;28;20208;-31